Terminal Aerodrome Forecast
Issued by NWS

Home | Current Version | Previous Version | Text Only | Print | Product List | Glossary On
Versions: 1 2 3 4 5 6 7 8 9 10 11 12
000
FTAK31 PAFA 232336
TAFAOT
TAF
PAOT 232336Z 2400/2424 09018KT P6SM SCT050 BKN100 OVC200
     FM240900 09020KT 6SM -RASN BKN035 BKN050 OVC100
     FM241200 09020G30KT 6SM -RASN BKN025 BKN035 OVC050=

USA.gov is the U.S. government's official web portal to all federal, state and local government web resources and services.